Stockbridge, Georgia
Current Conditions -  °F | °C
As of 9:52 AM on Friday 24 Oct 2014 (Local Time) from KATL Reporting Station
Scattered Clouds Scattered Clouds  
Wind Chill: 57°   Ceiling: Unl
Heat Index: 57°   Visibility: 10mi
Dew Point: 47°   Wind: 6mph
Humidity: 69%   Direction: 300°WNW
Pressure: 30.08"   Gusts: NA
Location:  33.54°N, 84.23°W
Report Text: KATL 241352Z 30005KT 10SM FEW120 SCT180 SCT250 14/08 A3008 RMK AO2 SLP186 VIRGA DSNT S T01390083
Loading
Personal Weather Stations






























Interactive Weather Map New forecast layout! Learn more

10-Day Weather Forecast

Advertisements
Track Severe Weather on mobile